To NAV CANADA Home Page Login to a new session Search on AWWS site Feedback and Comments Disclaimer Vers la page française équivalente Tips FAQ What's new on the site To the Forecasts and Observations / NOTAM section To "File a Flight Plan" website Publications and other links Update of the User's profile FIC Telephone Numbers My Weather Data Folder Route Weather Data Regional Weather Data Local Weather Data To the Forecasts and Observations / NOTAM section
Request Generated 02/24/2017 at 03:38:06 UTC . Weather information available at that time is displayed.

METAR/TAF

NATASHQUAN/QC    (show WxCam)

SPECI CYNA 240335Z AUTO 12018G24KT 3SM -SN BKN006 OVC010 M00/M00
A2946 RMK SLP979=
SPECI CYNA 240333Z AUTO 11019G24KT 2 1/4SM -SN BKN006 OVC010 M00/M00
A2946 RMK SLP978=
SPECI CYNA 240332Z AUTO 11017G23KT 2SM -SN BKN006 OVC010 M00/M00
A2946 RMK SLP979=
SPECI CYNA 240331Z AUTO 11017G23KT 2SM -SN SCT004 OVC010 M00/M00
A2946 RMK SLP979=
SPECI CYNA 240322Z AUTO 12018G23KT 1 1/4SM -SN VV006 M00/M00 A2947
RMK SLP982=
METAR CYNA 240300Z AUTO 12018G23KT 3/4SM -SN VV006 M00/M00 A2949 RMK
PRESFR SLP987=
SPECI CYNA 240224Z AUTO 12018G24KT 1SM -SN VV007 M01/M01 A2952 RMK
PRESFR SLP000=
SPECI CYNA 240223Z AUTO 12018G24KT 1SM -SN FEW004 OVC008 M01/M01
A2952 RMK PRESFR SLP000=
SPECI CYNA 240221Z AUTO 11016G23KT 1SM -SN OVC007 M01/M01 A2953 RMK
PRESFR SLP001=
SPECI CYNA 240217Z AUTO 12015G23KT 1 1/4SM -SN OVC007 M01/M01 A2953
RMK PRESFR SLP002=
SPECI CYNA 240207Z AUTO 12016KT 1 1/4SM -SN SCT005 BKN009 OVC014
M01/M01 A2955 RMK PRESFR SLP010=
SPECI CYNA 240206Z AUTO 12016KT 1 1/4SM -SN BKN007 OVC014 M01/M01
A2956 RMK PRESFR SLP011=
SPECI CYNA 240202Z AUTO 12015KT 1 1/4SM -SN SCT005 OVC009 M01/M01
A2957 RMK PRESFR SLP014=
METAR CYNA 240200Z AUTO 12014G19KT 1 1/2SM -SN BKN005 OVC010 M01/M01
A2957 RMK PRESFR SLP015=
SPECI CYNA 240133Z AUTO 12012G17KT 1 1/4SM -SN OVC005 M01/M01 A2960
RMK SLP026=
SPECI CYNA 240116Z AUTO 12012G19KT 1SM -SN OVC005 M01/M01 A2959 RMK
SLP023=
SPECI CYNA 240107Z AUTO 12014G19KT 2SM -SN BKN005 OVC011 M01/M01
A2959 RMK SLP024=
METAR CYNA 240100Z AUTO 12014G19KT 2 1/2SM -SN BKN005 OVC012 M01/M01
A2959 RMK PRESFR SLP024=

TAF CYNA 240138Z 2402/2414 12012KT 1SM -SN VV004 TEMPO 2402/2405 2SM
-SN OVC008 PROB30 2402/2405 1/2SM -FZRA FG
FM240500 18012G22KT 1SM -RA BR OVC004 TEMPO 2405/2407 3SM -RA BR
OVC005
FM240700 20010KT 3SM -RA -DZ BR OVC006
BECMG 2408/2410 31012KT
FM241000 31012KT 6SM BR BKN015
RMK FCST BASED ON AUTO OBS. NXT FCST BY 240800Z=
Your time UTC time
Weather data provided by Environment Canada and NAV CANADA